createdAt,value
2023-01-25T00:00:09.364Z,12.60
2023-01-25T00:02:37.119Z,14.53
2023-01-25T00:05:04.629Z,13.33
2023-01-25T00:07:57.252Z,13.60
2023-01-25T00:10:24.707Z,12.87
2023-01-25T00:12:53.523Z,12.43
2023-01-25T00:15:20.916Z,12.13
2023-01-25T00:17:48.364Z,13.93
2023-01-25T00:20:15.938Z,12.63
2023-01-25T00:22:44.530Z,12.80
2023-01-25T00:25:11.952Z,13.70
2023-01-25T00:27:39.335Z,13.57
2023-01-25T00:30:07.067Z,12.47
2023-01-25T00:32:42.670Z,13.03
2023-01-25T00:35:12.611Z,12.73
2023-01-25T00:37:42.722Z,13.57
2023-01-25T00:40:10.963Z,12.97
2023-01-25T00:42:39.036Z,14.17
2023-01-25T00:45:07.214Z,13.57
2023-01-25T00:47:35.417Z,13.20
2023-01-25T00:50:05.807Z,14.70
2023-01-25T00:52:33.172Z,13.33
2023-01-25T00:55:01.035Z,13.53
2023-01-25T00:57:28.520Z,13.47
2023-01-25T00:59:55.932Z,13.63
2023-01-25T01:02:23.333Z,14.13
2023-01-25T01:04:56.564Z,12.87
2023-01-25T01:07:24.245Z,14.47
2023-01-25T01:09:53.187Z,13.80
2023-01-25T01:12:20.611Z,15.00
2023-01-25T01:14:48.024Z,13.27
2023-01-25T01:17:15.652Z,13.30
2023-01-25T01:19:43.123Z,13.83
2023-01-25T01:22:11.856Z,13.93
2023-01-25T01:24:39.542Z,13.93
2023-01-25T01:27:06.871Z,14.40
2023-01-25T01:29:34.224Z,14.77
2023-01-25T01:32:01.893Z,14.00
2023-01-25T01:34:29.344Z,13.87
2023-01-25T01:36:56.786Z,14.37
2023-01-25T01:39:24.717Z,15.23
2023-01-25T01:41:52.578Z,15.13
2023-01-25T01:44:24.185Z,15.07
2023-01-25T01:46:58.008Z,15.27
2023-01-25T01:49:29.624Z,13.80
2023-01-25T01:52:05.379Z,14.90
2023-01-25T01:54:39.435Z,15.23
2023-01-25T01:57:14.482Z,13.87
2023-01-25T01:59:41.920Z,14.70
2023-01-25T02:02:09.507Z,14.70
2023-01-25T02:04:37.157Z,13.50
2023-01-25T02:07:16.876Z,14.50
2023-01-25T02:09:47.929Z,14.23
2023-01-25T02:12:15.571Z,15.17
2023-01-25T02:14:46.518Z,14.80
2023-01-25T02:17:14.735Z,14.30
2023-01-25T02:19:51.616Z,13.33
2023-01-25T02:22:22.999Z,14.97
2023-01-25T02:24:54.747Z,13.90
2023-01-25T02:27:22.296Z,14.60
2023-01-25T02:29:49.934Z,14.20
2023-01-25T02:32:17.236Z,15.70
2023-01-25T02:34:44.666Z,14.67
2023-01-25T02:37:15.637Z,15.23
2023-01-25T02:39:43.590Z,15.30
2023-01-25T02:42:11.661Z,14.33
2023-01-25T02:44:39.806Z,14.77
2023-01-25T02:47:07.173Z,15.37
2023-01-25T02:49:37.967Z,15.63
2023-01-25T02:52:08.453Z,15.97
2023-01-25T02:54:36.676Z,15.40
2023-01-25T02:57:06.529Z,14.80
2023-01-25T02:59:41.808Z,15.23
2023-01-25T03:02:09.415Z,15.37
2023-01-25T03:04:37.036Z,15.80
2023-01-25T03:07:45.770Z,14.70
2023-01-25T03:10:13.685Z,17.57
2023-01-25T03:12:41.155Z,15.60
2023-01-25T03:15:09.292Z,16.00
2023-01-25T03:17:37.035Z,14.57
2023-01-25T03:20:06.192Z,16.00
2023-01-25T03:22:34.535Z,15.73
2023-01-25T03:25:02.334Z,15.20
2023-01-25T03:27:30.907Z,15.27
2023-01-25T03:30:04.609Z,14.83
2023-01-25T03:32:33.829Z,15.83
2023-01-25T03:35:07.193Z,15.63
2023-01-25T03:37:34.784Z,14.57
2023-01-25T03:40:04.135Z,15.30
2023-01-25T03:42:32.024Z,15.67
2023-01-25T03:44:59.530Z,14.73
2023-01-25T03:47:26.928Z,15.03
2023-01-25T03:49:54.842Z,15.70
2023-01-25T03:52:24.593Z,14.90
2023-01-25T03:54:52.009Z,16.53
2023-01-25T03:57:19.802Z,17.33
2023-01-25T03:59:55.523Z,18.00
2023-01-25T04:02:22.945Z,18.10
2023-01-25T04:04:50.421Z,17.03
2023-01-25T04:07:20.532Z,15.17
2023-01-25T04:09:50.217Z,17.33
2023-01-25T04:12:18.442Z,17.43
2023-01-25T04:14:46.983Z,17.97
2023-01-25T04:17:20.588Z,17.37
2023-01-25T04:19:54.529Z,18.70
2023-01-25T04:22:27.112Z,19.73
2023-01-25T04:24:56.809Z,20.57
2023-01-25T04:27:24.848Z,20.47
2023-01-25T04:29:58.913Z,20.03
2023-01-25T04:32:27.529Z,21.33
2023-01-25T04:34:55.786Z,19.77
2023-01-25T04:37:26.943Z,21.33
2023-01-25T04:39:58.337Z,19.00
2023-01-25T04:42:27.069Z,22.40
2023-01-25T04:44:56.874Z,22.10
2023-01-25T04:47:24.866Z,18.43
2023-01-25T04:49:52.415Z,19.93
2023-01-25T04:52:24.286Z,22.50
2023-01-25T04:54:51.715Z,19.33
2023-01-25T04:57:19.095Z,21.13
2023-01-25T04:59:50.803Z,20.03
2023-01-25T05:02:18.510Z,20.70
2023-01-25T05:04:45.939Z,21.63
2023-01-25T05:07:13.882Z,19.43
2023-01-25T05:09:42.206Z,21.63
2023-01-25T05:12:13.688Z,20.67
2023-01-25T05:14:56.465Z,21.57
2023-01-25T05:17:24.142Z,22.23
2023-01-25T05:19:51.664Z,21.30
2023-01-25T05:22:22.911Z,21.00
2023-01-25T05:24:53.410Z,22.73
2023-01-25T05:27:22.033Z,22.87
2023-01-25T05:30:09.650Z,22.30
2023-01-25T05:32:49.096Z,20.70
2023-01-25T05:35:17.867Z,25.80
2023-01-25T05:37:46.519Z,23.30
2023-01-25T05:40:22.282Z,28.80
2023-01-25T05:42:56.560Z,23.53
2023-01-25T05:45:25.381Z,24.87
2023-01-25T05:47:55.077Z,22.00
2023-01-25T05:50:23.261Z,31.67
2023-01-25T05:52:58.083Z,27.60
2023-01-25T05:55:25.524Z,21.60
2023-01-25T05:57:56.990Z,23.17
2023-01-25T06:00:25.530Z,28.77
2023-01-25T06:02:52.978Z,23.10
2023-01-25T06:05:24.595Z,22.43
2023-01-25T06:07:51.997Z,22.80
2023-01-25T06:10:22.286Z,23.70
2023-01-25T06:12:51.293Z,21.43
2023-01-25T06:15:18.822Z,23.67
2023-01-25T06:17:46.380Z,22.07
2023-01-25T06:20:30.013Z,22.30
2023-01-25T06:23:06.102Z,21.63
2023-01-25T06:25:33.545Z,22.50
2023-01-25T06:28:01.021Z,22.13
2023-01-25T06:30:28.434Z,23.67
2023-01-25T06:32:58.481Z,24.20
2023-01-25T06:35:26.571Z,21.70
2023-01-25T06:37:57.409Z,22.00
2023-01-25T06:40:25.024Z,21.50
2023-01-25T06:42:52.375Z,21.33
2023-01-25T06:45:19.979Z,20.70
2023-01-25T06:47:49.533Z,21.60
2023-01-25T06:50:16.936Z,19.27
2023-01-25T06:52:44.413Z,20.70
2023-01-25T06:55:13.990Z,20.57
2023-01-25T06:57:41.563Z,20.17
2023-01-25T07:00:09.584Z,22.10
2023-01-25T07:02:37.354Z,16.67
2023-01-25T07:05:04.911Z,15.93
2023-01-25T07:07:32.352Z,16.20
2023-01-25T07:10:01.843Z,17.67
2023-01-25T07:12:30.491Z,17.57
2023-01-25T07:14:57.891Z,14.93
2023-01-25T07:17:25.268Z,15.37
2023-01-25T07:19:52.641Z,13.90
2023-01-25T07:22:20.054Z,14.50
2023-01-25T07:24:50.597Z,13.40
2023-01-25T07:27:18.143Z,15.33
2023-01-25T07:29:45.598Z,12.80
2023-01-25T07:32:16.427Z,14.47
2023-01-25T07:34:43.834Z,13.93
2023-01-25T07:37:11.207Z,14.13
2023-01-25T07:39:40.693Z,14.10
2023-01-25T07:42:08.272Z,14.50
2023-01-25T07:44:37.269Z,15.60
2023-01-25T07:47:13.183Z,17.80
2023-01-25T07:49:40.505Z,18.07
2023-01-25T07:52:07.852Z,19.07
2023-01-25T07:54:35.192Z,17.33
2023-01-25T07:57:02.797Z,18.37
2023-01-25T07:59:32.037Z,18.03
2023-01-25T08:01:59.722Z,18.47
2023-01-25T08:04:27.141Z,15.90
2023-01-25T08:06:54.660Z,18.80
2023-01-25T08:09:22.096Z,18.90
2023-01-25T08:11:49.565Z,18.47
2023-01-25T08:14:17.799Z,16.33
2023-01-25T08:16:45.256Z,17.50
2023-01-25T08:19:12.819Z,17.37
2023-01-25T08:21:40.424Z,18.60
2023-01-25T08:24:09.399Z,18.13
2023-01-25T08:26:37.366Z,17.13
2023-01-25T08:29:05.124Z,18.77
2023-01-25T08:31:34.107Z,17.83
2023-01-25T08:34:01.775Z,17.90
2023-01-25T08:36:29.208Z,15.90
2023-01-25T08:38:58.392Z,19.30
2023-01-25T08:41:26.587Z,17.77
2023-01-25T08:43:54.659Z,18.67
2023-01-25T08:46:22.699Z,18.37
2023-01-25T08:48:53.825Z,17.53
2023-01-25T08:51:21.298Z,18.43
2023-01-25T08:53:48.634Z,17.00
2023-01-25T08:56:16.975Z,17.47
2023-01-25T08:58:46.144Z,16.53
2023-01-25T09:01:14.338Z,15.90
2023-01-25T09:03:43.135Z,17.67
2023-01-25T09:06:11.368Z,18.07
2023-01-25T09:08:39.182Z,19.10
2023-01-25T09:11:07.907Z,19.07
2023-01-25T09:13:35.476Z,17.90
2023-01-25T09:16:07.098Z,18.10
2023-01-25T09:18:35.053Z,17.43
2023-01-25T09:21:13.194Z,19.70
2023-01-25T09:23:50.657Z,19.23
2023-01-25T09:26:28.110Z,18.83
2023-01-25T09:28:55.671Z,20.43
2023-01-25T09:31:24.227Z,20.07
2023-01-25T09:34:16.435Z,20.27
2023-01-25T09:36:43.830Z,21.30
2023-01-25T09:39:14.511Z,21.47
2023-01-25T09:42:03.436Z,21.53
2023-01-25T09:44:33.835Z,20.40
2023-01-25T09:47:04.130Z,19.37
2023-01-25T09:49:50.566Z,18.77
2023-01-25T09:52:36.934Z,16.97
2023-01-25T09:55:10.552Z,18.27
2023-01-25T09:57:38.818Z,18.17
2023-01-25T10:00:18.531Z,18.47
2023-01-25T10:02:53.443Z,17.80
2023-01-25T10:05:22.942Z,18.33
2023-01-25T10:08:09.148Z,18.10
2023-01-25T10:10:37.885Z,18.90
2023-01-25T10:13:05.577Z,20.30
2023-01-25T10:15:53.297Z,19.07
2023-01-25T10:18:39.621Z,18.03
2023-01-25T10:21:27.436Z,17.30
2023-01-25T10:23:54.859Z,17.93
2023-01-25T10:26:29.907Z,16.10
2023-01-25T10:29:20.543Z,17.53
2023-01-25T10:32:10.926Z,16.13
2023-01-25T10:34:55.863Z,18.40
2023-01-25T10:37:26.128Z,17.00
2023-01-25T10:39:59.712Z,17.83
2023-01-25T10:42:27.985Z,18.83
2023-01-25T10:44:55.379Z,18.20
2023-01-25T10:47:22.806Z,17.83
2023-01-25T10:49:54.543Z,17.87
2023-01-25T10:52:23.371Z,18.07
2023-01-25T10:55:07.614Z,17.03
2023-01-25T10:57:36.543Z,16.30
2023-01-25T11:00:10.981Z,17.10
2023-01-25T11:02:44.949Z,18.10
2023-01-25T11:05:29.405Z,17.90
2023-01-25T11:07:57.736Z,20.03
2023-01-25T11:10:35.735Z,20.90
2023-01-25T11:13:19.499Z,19.47
2023-01-25T11:15:53.119Z,20.90
2023-01-25T11:18:23.669Z,18.80
2023-01-25T11:21:04.979Z,17.87
2023-01-25T11:23:33.829Z,17.07
2023-01-25T11:26:11.913Z,16.70
2023-01-25T11:28:39.437Z,18.30
2023-01-25T11:31:10.231Z,16.93
2023-01-25T11:33:37.906Z,16.90
2023-01-25T11:36:19.841Z,17.90
2023-01-25T11:38:56.180Z,19.37
2023-01-25T11:41:35.054Z,19.00
2023-01-25T11:44:02.532Z,20.93
2023-01-25T11:46:50.909Z,20.53
2023-01-25T11:49:26.349Z,18.40
2023-01-25T11:52:10.048Z,18.40
2023-01-25T11:54:43.439Z,20.97
2023-01-25T11:57:26.079Z,19.67
2023-01-25T12:00:05.062Z,17.37
2023-01-25T12:02:32.546Z,18.73
2023-01-25T12:05:09.647Z,19.07
2023-01-25T12:08:03.505Z,18.87
2023-01-25T12:10:40.050Z,20.30
2023-01-25T12:13:12.671Z,18.97
2023-01-25T12:15:44.272Z,19.13
2023-01-25T12:18:37.950Z,21.30
2023-01-25T12:21:31.228Z,22.77
2023-01-25T12:24:16.304Z,19.73
2023-01-25T12:26:44.209Z,20.10
2023-01-25T12:29:14.627Z,21.30
2023-01-25T12:31:52.872Z,20.23
2023-01-25T12:34:23.307Z,22.70
2023-01-25T12:39:40.658Z,22.63
2023-01-25T12:42:22.232Z,22.03
2023-01-25T12:44:59.635Z,22.30
2023-01-25T12:47:40.446Z,23.97
2023-01-25T12:50:08.360Z,25.03
2023-01-25T12:52:38.174Z,23.37
2023-01-25T12:55:07.301Z,22.67
2023-01-25T12:57:37.330Z,23.40
2023-01-25T13:00:27.878Z,23.63
2023-01-25T13:03:03.617Z,23.53
2023-01-25T13:05:49.660Z,23.17
2023-01-25T13:08:30.138Z,22.73
2023-01-25T13:11:21.853Z,22.57
2023-01-25T13:13:49.325Z,21.87
2023-01-25T13:16:24.601Z,21.93
2023-01-25T13:18:52.188Z,21.23
2023-01-25T13:21:37.639Z,21.67
2023-01-25T13:24:12.976Z,21.67
2023-01-25T13:26:48.921Z,23.13
2023-01-25T13:29:40.327Z,24.17
2023-01-25T13:32:12.304Z,23.30
2023-01-25T13:34:42.953Z,20.10
2023-01-25T13:37:24.331Z,23.20
2023-01-25T13:39:53.051Z,22.77
2023-01-25T13:42:22.772Z,20.60
2023-01-25T13:44:52.672Z,22.33
2023-01-25T13:47:21.969Z,22.53
2023-01-25T13:49:49.361Z,21.63
2023-01-25T13:52:17.774Z,21.77
2023-01-25T13:54:48.644Z,22.53
2023-01-25T13:57:20.336Z,18.73
2023-01-25T13:59:49.514Z,19.83
2023-01-25T14:02:22.742Z,20.83
2023-01-25T14:04:51.115Z,19.00
2023-01-25T14:07:20.503Z,20.60
2023-01-25T14:09:49.026Z,20.23
2023-01-25T14:12:42.502Z,22.57
2023-01-25T14:15:18.999Z,20.17
2023-01-25T14:17:46.641Z,20.23
2023-01-25T14:20:20.110Z,20.80
2023-01-25T14:22:48.837Z,20.47
2023-01-25T14:25:17.905Z,20.13
2023-01-25T14:27:45.234Z,20.20
2023-01-25T14:30:22.116Z,20.23
2023-01-25T14:32:50.379Z,17.00
2023-01-25T14:35:42.936Z,17.50
2023-01-25T14:38:20.024Z,15.90
2023-01-25T14:40:48.303Z,17.90
2023-01-25T14:43:16.595Z,17.67
2023-01-25T14:45:44.005Z,21.03
2023-01-25T14:48:29.847Z,16.50
2023-01-25T14:51:03.537Z,18.20
2023-01-25T14:53:31.522Z,18.63
2023-01-25T14:55:58.856Z,16.97
2023-01-25T14:58:29.057Z,21.70
2023-01-25T15:01:02.298Z,17.87
2023-01-25T15:03:30.308Z,17.17
2023-01-25T15:05:59.658Z,17.70
2023-01-25T15:08:31.361Z,16.67
2023-01-25T15:11:19.476Z,18.37
2023-01-25T15:13:47.215Z,18.67
2023-01-25T15:16:16.471Z,19.00
2023-01-25T15:18:48.549Z,20.70
2023-01-25T15:21:30.225Z,19.23
2023-01-25T15:23:58.789Z,21.37
2023-01-25T15:26:28.367Z,20.43
2023-01-25T15:28:57.410Z,20.37
2023-01-25T15:31:29.888Z,19.17
2023-01-25T15:33:57.741Z,20.90
2023-01-25T15:36:25.186Z,20.27
2023-01-25T15:38:52.778Z,17.10
2023-01-25T15:41:20.703Z,16.07
2023-01-25T15:43:48.677Z,17.93
2023-01-25T15:46:42.513Z,19.73
2023-01-25T15:49:15.748Z,20.47
2023-01-25T15:51:43.092Z,16.07
2023-01-25T15:54:10.480Z,16.60
2023-01-25T15:56:38.203Z,18.70
2023-01-25T15:59:09.684Z,19.57
2023-01-25T16:01:37.160Z,20.57
2023-01-25T16:04:04.595Z,19.73
2023-01-25T16:06:41.858Z,18.00
2023-01-25T16:09:12.550Z,18.43
2023-01-25T16:11:39.920Z,17.37
2023-01-25T16:14:07.667Z,20.87
2023-01-25T16:16:38.041Z,19.03
2023-01-25T16:19:05.435Z,17.93
2023-01-25T16:21:38.855Z,19.53
2023-01-25T16:24:06.436Z,20.77
2023-01-25T16:26:34.092Z,18.80
2023-01-25T16:29:01.460Z,17.40
2023-01-25T16:31:33.465Z,21.03
2023-01-25T16:34:01.599Z,21.43
2023-01-25T16:36:29.320Z,22.90
2023-01-25T16:38:56.747Z,24.30
2023-01-25T16:41:24.147Z,22.37
2023-01-25T16:43:53.515Z,21.77
2023-01-25T16:46:22.452Z,22.17
2023-01-25T16:48:51.165Z,22.47
2023-01-25T16:51:22.851Z,23.77
2023-01-25T16:53:51.488Z,25.80
2023-01-25T16:56:18.865Z,25.77
2023-01-25T16:58:46.715Z,25.80
2023-01-25T17:01:14.697Z,28.40
2023-01-25T17:03:42.114Z,27.73
2023-01-25T17:06:15.606Z,27.20
2023-01-25T17:08:42.940Z,26.60
2023-01-25T17:11:10.434Z,27.83
2023-01-25T17:13:37.754Z,22.07
2023-01-25T17:16:05.282Z,26.63
2023-01-25T17:18:32.712Z,26.80
2023-01-25T17:21:00.987Z,29.10
2023-01-25T17:23:28.691Z,28.00
2023-01-25T17:25:56.439Z,24.10
2023-01-25T17:28:23.851Z,27.67
2023-01-25T17:30:54.313Z,28.80
2023-01-25T17:33:21.968Z,29.13
2023-01-25T17:35:49.335Z,30.57
2023-01-25T17:38:18.643Z,30.17
2023-01-25T17:40:46.024Z,29.57
2023-01-25T17:43:13.370Z,30.30
2023-01-25T17:45:40.924Z,30.93
2023-01-25T17:48:09.188Z,31.13
2023-01-25T17:50:36.850Z,32.40
2023-01-25T17:53:04.973Z,39.30
2023-01-25T17:55:35.055Z,49.00
2023-01-25T17:58:02.396Z,39.30
2023-01-25T18:00:29.757Z,34.07
2023-01-25T18:02:58.450Z,44.97
2023-01-25T18:05:28.616Z,38.97
2023-01-25T18:07:55.972Z,46.23
2023-01-25T18:10:23.331Z,47.93
2023-01-25T18:13:03.609Z,41.07
2023-01-25T18:15:32.520Z,43.93
2023-01-25T18:18:00.159Z,32.47
2023-01-25T18:20:27.562Z,45.33
2023-01-25T18:22:55.012Z,44.77
2023-01-25T18:25:36.208Z,44.30
2023-01-25T18:28:06.977Z,43.93
2023-01-25T18:30:36.938Z,50.90
2023-01-25T18:33:05.494Z,49.27
2023-01-25T18:35:32.934Z,53.57
2023-01-25T18:38:00.487Z,54.07
2023-01-25T18:40:29.888Z,46.67
2023-01-25T18:42:58.215Z,45.57
2023-01-25T18:45:25.621Z,50.60
2023-01-25T18:47:52.970Z,52.00
2023-01-25T18:50:20.516Z,51.30
2023-01-25T18:52:48.363Z,55.77
2023-01-25T18:55:15.793Z,54.87
2023-01-25T18:57:44.234Z,56.50
2023-01-25T19:00:14.618Z,57.87
2023-01-25T19:02:42.059Z,52.73
2023-01-25T19:05:09.973Z,53.53
2023-01-25T19:07:37.546Z,52.80
2023-01-25T19:10:05.332Z,55.50
2023-01-25T19:12:32.913Z,57.63
2023-01-25T19:15:00.469Z,56.63
2023-01-25T19:17:27.850Z,56.10
2023-01-25T19:19:55.403Z,56.37
2023-01-25T19:22:22.802Z,49.63
2023-01-25T19:24:50.125Z,48.13
2023-01-25T19:27:17.652Z,57.10
2023-01-25T19:29:45.272Z,54.10
2023-01-25T19:32:12.641Z,53.40
2023-01-25T19:34:40.063Z,54.00
2023-01-25T19:37:07.421Z,50.73
2023-01-25T19:39:35.892Z,53.73
2023-01-25T19:42:03.253Z,53.77
2023-01-25T19:44:30.723Z,45.37
2023-01-25T19:46:58.312Z,53.30
2023-01-25T19:49:25.677Z,52.50
2023-01-25T19:51:53.338Z,53.97
2023-01-25T19:54:21.676Z,53.43
2023-01-25T19:56:50.012Z,59.33
2023-01-25T19:59:18.646Z,55.63
2023-01-25T20:01:46.320Z,49.07
2023-01-25T20:04:19.674Z,54.27
2023-01-25T20:06:47.906Z,52.83
2023-01-25T20:09:17.302Z,53.10
2023-01-25T20:11:46.157Z,51.33
2023-01-25T20:14:13.949Z,56.90
2023-01-25T20:16:41.592Z,50.80
2023-01-25T20:19:11.768Z,55.93
2023-01-25T20:21:39.781Z,71.83
2023-01-25T20:24:08.608Z,58.60
2023-01-25T20:26:38.939Z,58.50
2023-01-25T20:29:07.193Z,56.17
2023-01-25T20:31:35.931Z,54.83
2023-01-25T20:34:12.569Z,57.63
2023-01-25T20:36:40.311Z,48.87
2023-01-25T20:39:08.496Z,65.35
2023-01-25T20:41:35.994Z,67.07
2023-01-25T20:44:07.187Z,51.90
2023-01-25T20:46:37.456Z,62.63
2023-01-25T20:49:14.207Z,60.00
2023-01-25T20:51:42.875Z,52.57
2023-01-25T20:54:10.425Z,55.37
2023-01-25T20:56:37.975Z,47.80
2023-01-25T20:59:05.759Z,51.60
2023-01-25T21:01:37.340Z,46.83
2023-01-25T21:04:06.373Z,44.77
2023-01-25T21:06:42.226Z,50.00
2023-01-25T21:09:13.239Z,47.27
2023-01-25T21:11:40.677Z,48.80
2023-01-25T21:14:08.134Z,43.97
2023-01-25T21:16:35.515Z,35.53
2023-01-25T21:19:06.057Z,40.80
2023-01-25T21:21:34.773Z,45.93
2023-01-25T21:24:04.759Z,48.50
2023-01-25T21:26:33.414Z,46.87
2023-01-25T21:29:01.755Z,47.67
2023-01-25T21:31:32.854Z,44.67
2023-01-25T21:34:01.288Z,52.23
2023-01-25T21:36:28.728Z,48.73
2023-01-25T21:38:56.545Z,54.03
2023-01-25T21:41:24.983Z,51.20
2023-01-25T21:44:31.717Z,53.43
2023-01-25T21:50:04.884Z,49.03
2023-01-25T21:52:36.234Z,52.70
2023-01-25T21:55:04.695Z,53.03
2023-01-25T21:57:32.051Z,50.37
2023-01-25T21:59:59.391Z,44.30
2023-01-25T22:02:26.817Z,51.00
2023-01-25T22:04:54.242Z,51.00
2023-01-25T22:07:21.665Z,52.47
2023-01-25T22:09:49.480Z,45.83
2023-01-25T22:12:17.007Z,49.37
2023-01-25T22:14:44.467Z,53.47
2023-01-25T22:17:11.871Z,55.40
2023-01-25T22:19:39.184Z,54.20
2023-01-25T22:22:06.551Z,53.23
2023-01-25T22:24:33.890Z,55.50
2023-01-25T22:27:01.260Z,55.17
2023-01-25T22:29:29.833Z,58.23
2023-01-25T22:31:57.536Z,53.43
2023-01-25T22:34:25.011Z,46.23
2023-01-25T22:36:52.388Z,51.90
2023-01-25T22:39:19.803Z,50.30
2023-01-25T22:41:47.200Z,44.20
2023-01-25T22:44:14.718Z,46.03
2023-01-25T22:46:42.185Z,51.03
2023-01-25T22:49:09.517Z,50.30
2023-01-25T22:51:36.915Z,55.97
2023-01-25T22:54:04.278Z,56.53
2023-01-25T22:56:32.766Z,54.80
2023-01-25T22:59:00.831Z,54.27
2023-01-25T23:01:32.641Z,58.47
2023-01-25T23:04:00.560Z,58.20
2023-01-25T23:06:33.128Z,56.20
2023-01-25T23:09:01.430Z,61.20
2023-01-25T23:11:32.245Z,60.90
2023-01-25T23:14:18.654Z,54.80
2023-01-25T23:16:46.024Z,58.17
2023-01-25T23:19:13.895Z,58.10
2023-01-25T23:21:42.258Z,57.63
2023-01-25T23:24:10.428Z,58.77
2023-01-25T23:26:39.196Z,57.80
2023-01-25T23:29:07.625Z,60.37
2023-01-25T23:31:35.178Z,56.33
2023-01-25T23:34:03.943Z,55.90
2023-01-25T23:36:33.392Z,55.70
2023-01-25T23:39:00.857Z,53.53
2023-01-25T23:41:29.267Z,52.50
2023-01-25T23:43:57.792Z,53.77
2023-01-25T23:46:25.714Z,55.87
2023-01-25T23:48:53.413Z,53.53
2023-01-25T23:51:21.014Z,53.60
2023-01-25T23:53:48.417Z,55.63
2023-01-25T23:56:17.454Z,55.73
2023-01-25T23:58:45.435Z,53.10
